sensor_id;sensor_type;location;lat;lon;timestamp;temperature;humidity
41168;DHT22;26906;45.658;9.272;2024-01-30T06:36:21;2.80;99.90
41168;DHT22;26906;45.658;9.272;2024-01-30T06:38:47;2.80;99.90
41168;DHT22;26906;45.658;9.272;2024-01-30T06:41:12;2.90;99.90
41168;DHT22;26906;45.658;9.272;2024-01-30T06:43:39;3.00;99.90
41168;DHT22;26906;45.658;9.272;2024-01-30T06:46:05;3.00;99.90
41168;DHT22;26906;45.658;9.272;2024-01-30T06:48:30;3.00;99.90
41168;DHT22;26906;45.658;9.272;2024-01-30T06:50:57;3.00;99.90
41168;DHT22;26906;45.658;9.272;2024-01-30T06:53:23;2.90;99.90
41168;DHT22;26906;45.658;9.272;2024-01-30T06:55:49;2.90;99.90
41168;DHT22;26906;45.658;9.272;2024-01-30T06:58:15;3.00;99.90
41168;DHT22;26906;45.658;9.272;2024-01-30T07:00:42;2.90;99.90
41168;DHT22;26906;45.658;9.272;2024-01-30T07:03:07;2.90;99.90
41168;DHT22;26906;45.658;9.272;2024-01-30T07:05:34;4.10;99.90
41168;DHT22;26906;45.658;9.272;2024-01-30T07:08:00;2.90;99.90
41168;DHT22;26906;45.658;9.272;2024-01-30T07:10:26;3.00;99.90
41168;DHT22;26906;45.658;9.272;2024-01-30T07:12:51;3.10;99.90
41168;DHT22;26906;45.658;9.272;2024-01-30T07:15:17;3.10;99.90
41168;DHT22;26906;45.658;9.272;2024-01-30T07:17:45;3.10;99.90
41168;DHT22;26906;45.658;9.272;2024-01-30T07:20:11;3.10;99.90
41168;DHT22;26906;45.658;9.272;2024-01-30T07:22:39;3.10;99.90
41168;DHT22;26906;45.658;9.272;2024-01-30T07:25:06;3.10;99.90
41168;DHT22;26906;45.658;9.272;2024-01-30T07:27:32;3.20;99.90
41168;DHT22;26906;45.658;9.272;2024-01-30T07:29:59;3.20;99.90
41168;DHT22;26906;45.658;9.272;2024-01-30T07:32:25;3.30;99.90
41168;DHT22;26906;45.658;9.272;2024-01-30T07:34:51;3.40;99.90
41168;DHT22;26906;45.658;9.272;2024-01-30T07:37:17;3.40;99.90
41168;DHT22;26906;45.658;9.272;2024-01-30T07:39:43;3.40;99.90
41168;DHT22;26906;45.658;9.272;2024-01-30T07:42:08;3.50;99.90
41168;DHT22;26906;45.658;9.272;2024-01-30T07:44:34;3.50;99.90
41168;DHT22;26906;45.658;9.272;2024-01-30T07:47:00;3.50;99.90
41168;DHT22;26906;45.658;9.272;2024-01-30T07:49:26;3.60;99.90
41168;DHT22;26906;45.658;9.272;2024-01-30T07:51:52;3.70;99.90
41168;DHT22;26906;45.658;9.272;2024-01-30T07:54:17;3.80;99.90
41168;DHT22;26906;45.658;9.272;2024-01-30T07:56:44;3.90;99.90
41168;DHT22;26906;45.658;9.272;2024-01-30T07:59:10;3.90;99.90
41168;DHT22;26906;45.658;9.272;2024-01-30T08:01:37;4.00;99.90
41168;DHT22;26906;45.658;9.272;2024-01-30T08:04:04;4.10;99.90
41168;DHT22;26906;45.658;9.272;2024-01-30T08:06:29;4.20;99.90
41168;DHT22;26906;45.658;9.272;2024-01-30T08:08:55;4.30;99.90
41168;DHT22;26906;45.658;9.272;2024-01-30T08:11:22;4.40;99.90
41168;DHT22;26906;45.658;9.272;2024-01-30T08:13:54;4.50;99.90
41168;DHT22;26906;45.658;9.272;2024-01-30T08:16:21;4.50;99.90
41168;DHT22;26906;45.658;9.272;2024-01-30T08:18:47;4.70;99.90
41168;DHT22;26906;45.658;9.272;2024-01-30T08:21:13;4.80;99.90
41168;DHT22;26906;45.658;9.272;2024-01-30T08:23:39;5.00;99.90
41168;DHT22;26906;45.658;9.272;2024-01-30T08:26:05;5.20;99.90
41168;DHT22;26906;45.658;9.272;2024-01-30T08:28:32;5.30;99.90
41168;DHT22;26906;45.658;9.272;2024-01-30T08:30:58;5.40;99.90
41168;DHT22;26906;45.658;9.272;2024-01-30T08:33:24;5.50;99.90
41168;DHT22;26906;45.658;9.272;2024-01-30T08:35:49;5.60;99.90
41168;DHT22;26906;45.658;9.272;2024-01-30T08:38:15;5.70;99.90
41168;DHT22;26906;45.658;9.272;2024-01-30T08:40:40;5.80;99.90
41168;DHT22;26906;45.658;9.272;2024-01-30T08:43:07;5.90;99.90
41168;DHT22;26906;45.658;9.272;2024-01-30T08:45:35;6.10;99.90
41168;DHT22;26906;45.658;9.272;2024-01-30T08:48:01;6.20;99.90
41168;DHT22;26906;45.658;9.272;2024-01-30T08:50:28;6.20;99.90
41168;DHT22;26906;45.658;9.272;2024-01-30T08:52:54;6.30;99.90
41168;DHT22;26906;45.658;9.272;2024-01-30T08:55:19;6.40;99.90
41168;DHT22;26906;45.658;9.272;2024-01-30T08:57:45;6.50;99.90
41168;DHT22;26906;45.658;9.272;2024-01-30T09:00:11;6.60;99.90
41168;DHT22;26906;45.658;9.272;2024-01-30T09:02:37;6.50;99.90
41168;DHT22;26906;45.658;9.272;2024-01-30T09:05:04;6.60;99.90
41168;DHT22;26906;45.658;9.272;2024-01-30T09:07:29;6.70;99.90
41168;DHT22;26906;45.658;9.272;2024-01-30T09:09:55;6.80;99.90
41168;DHT22;26906;45.658;9.272;2024-01-30T09:12:22;7.00;99.90
41168;DHT22;26906;45.658;9.272;2024-01-30T09:14:47;7.10;99.90
41168;DHT22;26906;45.658;9.272;2024-01-30T09:17:13;7.20;99.90
41168;DHT22;26906;45.658;9.272;2024-01-30T09:19:39;7.40;99.90
41168;DHT22;26906;45.658;9.272;2024-01-30T09:22:05;7.50;99.90
41168;DHT22;26906;45.658;9.272;2024-01-30T09:24:31;7.70;99.90
41168;DHT22;26906;45.658;9.272;2024-01-30T09:26:57;7.90;99.90
41168;DHT22;26906;45.658;9.272;2024-01-30T09:29:23;8.10;99.90
41168;DHT22;26906;45.658;9.272;2024-01-30T09:31:48;8.30;99.90
41168;DHT22;26906;45.658;9.272;2024-01-30T09:34:14;8.20;99.90
41168;DHT22;26906;45.658;9.272;2024-01-30T09:36:40;8.50;99.90
41168;DHT22;26906;45.658;9.272;2024-01-30T09:39:05;8.60;99.90
41168;DHT22;26906;45.658;9.272;2024-01-30T09:41:33;8.60;99.90
41168;DHT22;26906;45.658;9.272;2024-01-30T09:44:01;8.80;99.90
41168;DHT22;26906;45.658;9.272;2024-01-30T09:46:28;8.90;99.90
41168;DHT22;26906;45.658;9.272;2024-01-30T09:48:55;9.00;99.90
41168;DHT22;26906;45.658;9.272;2024-01-30T09:51:23;9.10;99.90
41168;DHT22;26906;45.658;9.272;2024-01-30T09:53:49;9.30;99.90
41168;DHT22;26906;45.658;9.272;2024-01-30T09:56:16;9.30;99.90
41168;DHT22;26906;45.658;9.272;2024-01-30T09:58:43;9.30;99.90
41168;DHT22;26906;45.658;9.272;2024-01-30T10:01:09;9.30;99.90
41168;DHT22;26906;45.658;9.272;2024-01-30T10:03:34;9.40;99.90
41168;DHT22;26906;45.658;9.272;2024-01-30T10:06:01;9.50;99.90
41168;DHT22;26906;45.658;9.272;2024-01-30T10:08:29;9.70;99.90
41168;DHT22;26906;45.658;9.272;2024-01-30T10:10:55;9.60;99.90
41168;DHT22;26906;45.658;9.272;2024-01-30T10:13:21;9.60;99.90
41168;DHT22;26906;45.658;9.272;2024-01-30T10:15:47;9.80;99.90
41168;DHT22;26906;45.658;9.272;2024-01-30T10:18:13;9.90;99.90
41168;DHT22;26906;45.658;9.272;2024-01-30T10:20:38;10.10;99.90
41168;DHT22;26906;45.658;9.272;2024-01-30T10:23:05;10.20;99.90
41168;DHT22;26906;45.658;9.272;2024-01-30T10:25:31;10.30;99.90
41168;DHT22;26906;45.658;9.272;2024-01-30T10:27:59;10.50;99.90
41168;DHT22;26906;45.658;9.272;2024-01-30T10:30:24;10.60;99.90
41168;DHT22;26906;45.658;9.272;2024-01-30T10:32:50;10.80;99.90
41168;DHT22;26906;45.658;9.272;2024-01-30T10:35:18;10.80;99.90
41168;DHT22;26906;45.658;9.272;2024-01-30T10:37:44;10.90;99.90
41168;DHT22;26906;45.658;9.272;2024-01-30T10:40:14;11.10;99.90
41168;DHT22;26906;45.658;9.272;2024-01-30T10:42:43;11.10;99.90
41168;DHT22;26906;45.658;9.272;2024-01-30T10:45:11;11.10;99.90
41168;DHT22;26906;45.658;9.272;2024-01-30T10:47:44;11.20;99.90
41168;DHT22;26906;45.658;9.272;2024-01-30T10:50:14;11.30;99.90
41168;DHT22;26906;45.658;9.272;2024-01-30T10:52:41;11.30;99.90
41168;DHT22;26906;45.658;9.272;2024-01-30T10:55:08;11.40;99.90
41168;DHT22;26906;45.658;9.272;2024-01-30T10:57:34;11.50;99.90
41168;DHT22;26906;45.658;9.272;2024-01-30T11:00:10;11.70;99.90
41168;DHT22;26906;45.658;9.272;2024-01-30T11:02:41;11.70;99.90
41168;DHT22;26906;45.658;9.272;2024-01-30T11:05:08;11.80;99.90
41168;DHT22;26906;45.658;9.272;2024-01-30T11:07:34;12.00;99.90
41168;DHT22;26906;45.658;9.272;2024-01-30T11:10:01;12.10;99.90
41168;DHT22;26906;45.658;9.272;2024-01-30T11:12:29;12.20;99.90
41168;DHT22;26906;45.658;9.272;2024-01-30T11:15:21;12.20;99.90
41168;DHT22;26906;45.658;9.272;2024-01-30T11:20:26;12.30;99.90
41168;DHT22;26906;45.658;9.272;2024-01-30T11:22:54;12.40;99.90
41168;DHT22;26906;45.658;9.272;2024-01-30T11:25:22;12.50;99.90
41168;DHT22;26906;45.658;9.272;2024-01-30T11:27:53;12.50;99.90
41168;DHT22;26906;45.658;9.272;2024-01-30T11:30:27;12.70;99.90
41168;DHT22;26906;45.658;9.272;2024-01-30T11:35:25;13.00;99.90
41168;DHT22;26906;45.658;9.272;2024-01-30T11:37:51;13.00;99.90
41168;DHT22;26906;45.658;9.272;2024-01-30T11:40:19;13.00;99.90
41168;DHT22;26906;45.658;9.272;2024-01-30T11:42:45;13.10;99.90
41168;DHT22;26906;45.658;9.272;2024-01-30T11:45:12;13.00;99.90
41168;DHT22;26906;45.658;9.272;2024-01-30T11:47:38;13.10;99.90
41168;DHT22;26906;45.658;9.272;2024-01-30T11:50:05;13.10;99.90
41168;DHT22;26906;45.658;9.272;2024-01-30T11:52:33;13.10;99.90
41168;DHT22;26906;45.658;9.272;2024-01-30T11:55:00;13.30;99.90
41168;DHT22;26906;45.658;9.272;2024-01-30T11:57:27;13.40;99.90
41168;DHT22;26906;45.658;9.272;2024-01-30T11:59:53;13.50;99.90
41168;DHT22;26906;45.658;9.272;2024-01-30T12:02:19;13.50;99.90
41168;DHT22;26906;45.658;9.272;2024-01-30T12:04:44;13.60;99.90
41168;DHT22;26906;45.658;9.272;2024-01-30T12:07:11;13.80;99.90
41168;DHT22;26906;45.658;9.272;2024-01-30T12:09:37;13.90;99.90
41168;DHT22;26906;45.658;9.272;2024-01-30T12:12:03;14.00;99.90
41168;DHT22;26906;45.658;9.272;2024-01-30T12:14:30;14.00;99.90
41168;DHT22;26906;45.658;9.272;2024-01-30T12:16:56;14.10;99.90
41168;DHT22;26906;45.658;9.272;2024-01-30T12:19:26;14.20;99.90
41168;DHT22;26906;45.658;9.272;2024-01-30T12:21:58;14.30;99.90
41168;DHT22;26906;45.658;9.272;2024-01-30T12:24:28;14.40;99.90
41168;DHT22;26906;45.658;9.272;2024-01-30T12:26:58;14.40;99.90
41168;DHT22;26906;45.658;9.272;2024-01-30T12:29:24;14.40;99.90
41168;DHT22;26906;45.658;9.272;2024-01-30T12:31:53;14.60;99.90
41168;DHT22;26906;45.658;9.272;2024-01-30T12:34:20;14.70;99.90
41168;DHT22;26906;45.658;9.272;2024-01-30T12:36:49;14.70;99.90
41168;DHT22;26906;45.658;9.272;2024-01-30T12:39:15;14.50;99.90
41168;DHT22;26906;45.658;9.272;2024-01-30T12:41:41;14.20;99.90
41168;DHT22;26906;45.658;9.272;2024-01-30T12:44:07;14.10;99.90
41168;DHT22;26906;45.658;9.272;2024-01-30T12:46:36;13.90;99.90
41168;DHT22;26906;45.658;9.272;2024-01-30T12:49:02;13.70;99.90
41168;DHT22;26906;45.658;9.272;2024-01-30T12:51:28;13.60;99.90
41168;DHT22;26906;45.658;9.272;2024-01-30T12:53:54;13.90;99.90
41168;DHT22;26906;45.658;9.272;2024-01-30T12:56:20;14.20;99.90
41168;DHT22;26906;45.658;9.272;2024-01-30T12:58:46;14.50;99.90
41168;DHT22;26906;45.658;9.272;2024-01-30T13:01:12;14.60;99.90
41168;DHT22;26906;45.658;9.272;2024-01-30T13:03:38;14.60;99.90
41168;DHT22;26906;45.658;9.272;2024-01-30T13:06:04;14.80;99.90
41168;DHT22;26906;45.658;9.272;2024-01-30T13:08:30;14.80;99.90
41168;DHT22;26906;45.658;9.272;2024-01-30T13:10:56;14.90;99.90
41168;DHT22;26906;45.658;9.272;2024-01-30T13:13:23;15.00;99.90
41168;DHT22;26906;45.658;9.272;2024-01-30T13:15:49;15.10;99.90
41168;DHT22;26906;45.658;9.272;2024-01-30T13:18:15;15.00;99.90
41168;DHT22;26906;45.658;9.272;2024-01-30T13:20:41;15.00;99.90
41168;DHT22;26906;45.658;9.272;2024-01-30T13:23:07;14.90;99.90
41168;DHT22;26906;45.658;9.272;2024-01-30T13:25:34;14.90;99.90
41168;DHT22;26906;45.658;9.272;2024-01-30T13:27:59;15.00;99.90
41168;DHT22;26906;45.658;9.272;2024-01-30T13:30:25;14.80;99.90
41168;DHT22;26906;45.658;9.272;2024-01-30T13:32:51;14.60;99.90
41168;DHT22;26906;45.658;9.272;2024-01-30T13:35:17;14.20;99.90
41168;DHT22;26906;45.658;9.272;2024-01-30T13:37:43;13.90;99.90
41168;DHT22;26906;45.658;9.272;2024-01-30T13:40:09;13.90;99.90
41168;DHT22;26906;45.658;9.272;2024-01-30T13:42:35;13.90;99.90
41168;DHT22;26906;45.658;9.272;2024-01-30T13:45:01;14.00;99.90
41168;DHT22;26906;45.658;9.272;2024-01-30T13:47:27;14.10;99.90
41168;DHT22;26906;45.658;9.272;2024-01-30T13:49:52;14.20;99.90
41168;DHT22;26906;45.658;9.272;2024-01-30T13:52:18;14.30;99.90
41168;DHT22;26906;45.658;9.272;2024-01-30T13:54:44;14.30;99.90
41168;DHT22;26906;45.658;9.272;2024-01-30T13:57:10;14.40;99.90
41168;DHT22;26906;45.658;9.272;2024-01-30T13:59:38;14.30;99.90
41168;DHT22;26906;45.658;9.272;2024-01-30T14:02:03;14.40;99.90
41168;DHT22;26906;45.658;9.272;2024-01-30T14:04:29;14.50;99.90
41168;DHT22;26906;45.658;9.272;2024-01-30T14:06:55;14.60;99.90
41168;DHT22;26906;45.658;9.272;2024-01-30T14:09:22;14.60;99.90
41168;DHT22;26906;45.658;9.272;2024-01-30T14:11:48;14.60;99.90
41168;DHT22;26906;45.658;9.272;2024-01-30T14:14:14;14.50;99.90
41168;DHT22;26906;45.658;9.272;2024-01-30T14:16:39;14.40;99.90
41168;DHT22;26906;45.658;9.272;2024-01-30T14:19:05;14.20;99.90
41168;DHT22;26906;45.658;9.272;2024-01-30T14:21:31;14.10;99.90
41168;DHT22;26906;45.658;9.272;2024-01-30T14:23:56;14.00;99.90
41168;DHT22;26906;45.658;9.272;2024-01-30T14:26:22;14.00;99.90
41168;DHT22;26906;45.658;9.272;2024-01-30T14:28:49;14.10;99.90
41168;DHT22;26906;45.658;9.272;2024-01-30T14:31:15;14.20;99.90
41168;DHT22;26906;45.658;9.272;2024-01-30T14:33:44;14.40;99.90
41168;DHT22;26906;45.658;9.272;2024-01-30T14:36:09;14.40;99.90
41168;DHT22;26906;45.658;9.272;2024-01-30T14:38:35;14.30;99.90
41168;DHT22;26906;45.658;9.272;2024-01-30T14:41:01;14.30;99.90
41168;DHT22;26906;45.658;9.272;2024-01-30T14:43:26;14.20;99.90
41168;DHT22;26906;45.658;9.272;2024-01-30T14:45:52;14.10;99.90
41168;DHT22;26906;45.658;9.272;2024-01-30T14:48:18;14.10;99.90
41168;DHT22;26906;45.658;9.272;2024-01-30T14:50:45;14.00;99.90
41168;DHT22;26906;45.658;9.272;2024-01-30T14:53:11;14.00;99.90
41168;DHT22;26906;45.658;9.272;2024-01-30T14:55:37;13.90;99.90
41168;DHT22;26906;45.658;9.272;2024-01-30T14:58:03;13.70;99.90
41168;DHT22;26906;45.658;9.272;2024-01-30T15:00:29;13.60;99.90
41168;DHT22;26906;45.658;9.272;2024-01-30T15:02:55;13.60;99.90
41168;DHT22;26906;45.658;9.272;2024-01-30T15:05:20;13.60;99.90
41168;DHT22;26906;45.658;9.272;2024-01-30T15:07:47;13.50;99.90
41168;DHT22;26906;45.658;9.272;2024-01-30T15:10:13;13.50;99.90
41168;DHT22;26906;45.658;9.272;2024-01-30T15:12:39;13.50;99.90
41168;DHT22;26906;45.658;9.272;2024-01-30T15:15:07;13.40;99.90
41168;DHT22;26906;45.658;9.272;2024-01-30T15:17:33;13.30;99.90
41168;DHT22;26906;45.658;9.272;2024-01-30T15:19:58;13.20;99.90
41168;DHT22;26906;45.658;9.272;2024-01-30T15:22:25;13.10;99.90
41168;DHT22;26906;45.658;9.272;2024-01-30T15:24:51;13.10;99.90
41168;DHT22;26906;45.658;9.272;2024-01-30T15:27:17;13.00;99.90
41168;DHT22;26906;45.658;9.272;2024-01-30T15:29:45;12.80;99.90
41168;DHT22;26906;45.658;9.272;2024-01-30T15:32:10;12.70;99.90
41168;DHT22;26906;45.658;9.272;2024-01-30T15:34:36;12.70;99.90
41168;DHT22;26906;45.658;9.272;2024-01-30T15:37:02;12.60;99.90
41168;DHT22;26906;45.658;9.272;2024-01-30T15:39:28;12.50;99.90
41168;DHT22;26906;45.658;9.272;2024-01-30T15:41:54;12.40;99.90
41168;DHT22;26906;45.658;9.272;2024-01-30T15:44:20;12.40;99.90
41168;DHT22;26906;45.658;9.272;2024-01-30T15:46:46;12.30;99.90
41168;DHT22;26906;45.658;9.272;2024-01-30T15:49:12;12.10;99.90
41168;DHT22;26906;45.658;9.272;2024-01-30T15:51:37;11.90;99.90
41168;DHT22;26906;45.658;9.272;2024-01-30T15:54:03;11.90;99.90
41168;DHT22;26906;45.658;9.272;2024-01-30T15:56:29;11.80;99.90
41168;DHT22;26906;45.658;9.272;2024-01-30T15:58:55;11.70;99.90
41168;DHT22;26906;45.658;9.272;2024-01-30T16:01:21;11.60;99.90
41168;DHT22;26906;45.658;9.272;2024-01-30T16:03:46;11.50;99.90
41168;DHT22;26906;45.658;9.272;2024-01-30T16:06:15;11.40;99.90
41168;DHT22;26906;45.658;9.272;2024-01-30T16:08:41;11.30;99.90
41168;DHT22;26906;45.658;9.272;2024-01-30T16:11:08;11.20;99.90
41168;DHT22;26906;45.658;9.272;2024-01-30T16:13:34;11.20;99.90
41168;DHT22;26906;45.658;9.272;2024-01-30T16:16:04;11.00;99.90
41168;DHT22;26906;45.658;9.272;2024-01-30T16:18:31;10.90;99.90
41168;DHT22;26906;45.658;9.272;2024-01-30T16:20:57;10.80;99.90
41168;DHT22;26906;45.658;9.272;2024-01-30T16:23:23;10.70;99.90
41168;DHT22;26906;45.658;9.272;2024-01-30T16:25:49;10.70;99.90
41168;DHT22;26906;45.658;9.272;2024-01-30T16:28:15;10.50;99.90
41168;DHT22;26906;45.658;9.272;2024-01-30T16:30:41;10.50;99.90
41168;DHT22;26906;45.658;9.272;2024-01-30T16:33:06;10.40;99.90
41168;DHT22;26906;45.658;9.272;2024-01-30T16:35:32;10.30;99.90
41168;DHT22;26906;45.658;9.272;2024-01-30T16:37:58;10.30;99.90
41168;DHT22;26906;45.658;9.272;2024-01-30T16:40:25;10.20;99.90
41168;DHT22;26906;45.658;9.272;2024-01-30T16:42:50;10.20;99.90
41168;DHT22;26906;45.658;9.272;2024-01-30T16:45:16;10.10;99.90
41168;DHT22;26906;45.658;9.272;2024-01-30T16:47:42;10.10;99.90
41168;DHT22;26906;45.658;9.272;2024-01-30T16:50:08;10.00;99.90
41168;DHT22;26906;45.658;9.272;2024-01-30T16:52:34;10.00;99.90
41168;DHT22;26906;45.658;9.272;2024-01-30T16:54:59;9.90;99.90
41168;DHT22;26906;45.658;9.272;2024-01-30T16:57:25;9.90;99.90
41168;DHT22;26906;45.658;9.272;2024-01-30T16:59:51;9.80;99.90
41168;DHT22;26906;45.658;9.272;2024-01-30T17:02:17;9.70;99.90
41168;DHT22;26906;45.658;9.272;2024-01-30T17:04:43;9.70;99.90
41168;DHT22;26906;45.658;9.272;2024-01-30T17:07:09;9.60;99.90
41168;DHT22;26906;45.658;9.272;2024-01-30T17:09:34;9.60;99.90
41168;DHT22;26906;45.658;9.272;2024-01-30T17:12:00;9.50;99.90
41168;DHT22;26906;45.658;9.272;2024-01-30T17:14:27;9.40;99.90
41168;DHT22;26906;45.658;9.272;2024-01-30T17:16:54;9.40;99.90
41168;DHT22;26906;45.658;9.272;2024-01-30T17:19:19;9.40;99.90
41168;DHT22;26906;45.658;9.272;2024-01-30T17:21:45;9.40;99.90
41168;DHT22;26906;45.658;9.272;2024-01-30T17:24:11;9.30;99.90
41168;DHT22;26906;45.658;9.272;2024-01-30T17:26:37;9.30;99.90
41168;DHT22;26906;45.658;9.272;2024-01-30T17:29:03;9.30;99.90
41168;DHT22;26906;45.658;9.272;2024-01-30T17:31:29;9.30;99.90
41168;DHT22;26906;45.658;9.272;2024-01-30T17:33:55;9.20;99.90
41168;DHT22;26906;45.658;9.272;2024-01-30T17:36:20;9.20;99.90
41168;DHT22;26906;45.658;9.272;2024-01-30T17:38:47;9.10;99.90
41168;DHT22;26906;45.658;9.272;2024-01-30T17:41:13;9.10;99.90
41168;DHT22;26906;45.658;9.272;2024-01-30T17:43:39;9.10;99.90
41168;DHT22;26906;45.658;9.272;2024-01-30T17:46:04;9.00;99.90
41168;DHT22;26906;45.658;9.272;2024-01-30T17:48:31;9.00;99.90
41168;DHT22;26906;45.658;9.272;2024-01-30T17:50:57;9.00;99.90
41168;DHT22;26906;45.658;9.272;2024-01-30T17:53:23;8.90;99.90
41168;DHT22;26906;45.658;9.272;2024-01-30T17:55:49;8.90;99.90
41168;DHT22;26906;45.658;9.272;2024-01-30T17:58:14;8.80;99.90
41168;DHT22;26906;45.658;9.272;2024-01-30T18:00:40;8.80;99.90
41168;DHT22;26906;45.658;9.272;2024-01-30T18:03:06;8.90;99.90
41168;DHT22;26906;45.658;9.272;2024-01-30T18:05:32;9.00;99.90
41168;DHT22;26906;45.658;9.272;2024-01-30T18:07:59;8.90;99.90
41168;DHT22;26906;45.658;9.272;2024-01-30T18:10:26;8.80;99.90
41168;DHT22;26906;45.658;9.272;2024-01-30T18:12:52;8.80;99.90
41168;DHT22;26906;45.658;9.272;2024-01-30T18:15:19;8.70;99.90
41168;DHT22;26906;45.658;9.272;2024-01-30T18:17:45;8.70;99.90
41168;DHT22;26906;45.658;9.272;2024-01-30T18:20:11;8.50;99.90
41168;DHT22;26906;45.658;9.272;2024-01-30T18:22:36;8.40;99.90
41168;DHT22;26906;45.658;9.272;2024-01-30T18:25:06;8.50;99.90
41168;DHT22;26906;45.658;9.272;2024-01-30T18:27:32;8.50;99.90
41168;DHT22;26906;45.658;9.272;2024-01-30T18:29:58;8.60;99.90
41168;DHT22;26906;45.658;9.272;2024-01-30T18:32:24;8.60;99.90
41168;DHT22;26906;45.658;9.272;2024-01-30T18:34:49;8.60;99.90
41168;DHT22;26906;45.658;9.272;2024-01-30T18:37:15;8.70;99.90
41168;DHT22;26906;45.658;9.272;2024-01-30T18:39:41;8.70;99.90
41168;DHT22;26906;45.658;9.272;2024-01-30T18:42:08;8.70;99.90
41168;DHT22;26906;45.658;9.272;2024-01-30T18:44:34;8.60;99.90
41168;DHT22;26906;45.658;9.272;2024-01-30T18:46:59;8.60;99.90
41168;DHT22;26906;45.658;9.272;2024-01-30T18:49:25;8.50;99.90
41168;DHT22;26906;45.658;9.272;2024-01-30T18:51:51;8.40;99.90
41168;DHT22;26906;45.658;9.272;2024-01-30T18:54:18;8.30;99.90
41168;DHT22;26906;45.658;9.272;2024-01-30T18:56:44;8.30;99.90
41168;DHT22;26906;45.658;9.272;2024-01-30T18:59:10;8.40;99.90
41168;DHT22;26906;45.658;9.272;2024-01-30T19:01:38;8.40;99.90
41168;DHT22;26906;45.658;9.272;2024-01-30T19:04:05;8.30;99.90
41168;DHT22;26906;45.658;9.272;2024-01-30T19:06:31;8.20;99.90
41168;DHT22;26906;45.658;9.272;2024-01-30T19:08:56;8.10;99.90
41168;DHT22;26906;45.658;9.272;2024-01-30T19:11:22;8.10;99.90
41168;DHT22;26906;45.658;9.272;2024-01-30T19:13:48;8.10;99.90
41168;DHT22;26906;45.658;9.272;2024-01-30T19:16:14;8.10;99.90
41168;DHT22;26906;45.658;9.272;2024-01-30T19:18:40;8.00;99.90
41168;DHT22;26906;45.658;9.272;2024-01-30T19:21:05;8.00;99.90
41168;DHT22;26906;45.658;9.272;2024-01-30T19:23:31;8.00;99.90
41168;DHT22;26906;45.658;9.272;2024-01-30T19:25:57;7.90;99.90
41168;DHT22;26906;45.658;9.272;2024-01-30T19:28:22;7.90;99.90
41168;DHT22;26906;45.658;9.272;2024-01-30T19:30:48;8.00;99.90
41168;DHT22;26906;45.658;9.272;2024-01-30T19:33:15;8.10;99.90
41168;DHT22;26906;45.658;9.272;2024-01-30T19:35:41;8.10;99.90
41168;DHT22;26906;45.658;9.272;2024-01-30T19:38:06;8.00;99.90
41168;DHT22;26906;45.658;9.272;2024-01-30T19:40:33;8.00;99.90
41168;DHT22;26906;45.658;9.272;2024-01-30T19:42:59;7.90;99.90
41168;DHT22;26906;45.658;9.272;2024-01-30T19:45:25;7.90;99.90
41168;DHT22;26906;45.658;9.272;2024-01-30T19:47:51;7.80;99.90
41168;DHT22;26906;45.658;9.272;2024-01-30T19:50:18;7.80;99.90
41168;DHT22;26906;45.658;9.272;2024-01-30T19:52:44;7.80;99.90
41168;DHT22;26906;45.658;9.272;2024-01-30T19:55:12;7.70;99.90
41168;DHT22;26906;45.658;9.272;2024-01-30T19:57:39;7.70;99.90
41168;DHT22;26906;45.658;9.272;2024-01-30T20:00:05;7.70;99.90
41168;DHT22;26906;45.658;9.272;2024-01-30T20:02:35;7.70;99.90
41168;DHT22;26906;45.658;9.272;2024-01-30T20:05:01;7.60;99.90
41168;DHT22;26906;45.658;9.272;2024-01-30T20:07:27;7.60;99.90
41168;DHT22;26906;45.658;9.272;2024-01-30T20:09:53;7.70;99.90
41168;DHT22;26906;45.658;9.272;2024-01-30T20:12:19;7.60;99.90
41168;DHT22;26906;45.658;9.272;2024-01-30T20:14:44;7.70;99.90
41168;DHT22;26906;45.658;9.272;2024-01-30T20:17:10;7.50;99.90
41168;DHT22;26906;45.658;9.272;2024-01-30T20:19:40;7.50;99.90
41168;DHT22;26906;45.658;9.272;2024-01-30T20:22:06;7.40;99.90
41168;DHT22;26906;45.658;9.272;2024-01-30T20:24:32;7.70;99.90
41168;DHT22;26906;45.658;9.272;2024-01-30T20:26:58;7.50;99.90
41168;DHT22;26906;45.658;9.272;2024-01-30T20:29:23;7.50;99.90
41168;DHT22;26906;45.658;9.272;2024-01-30T20:31:50;7.50;99.90
41168;DHT22;26906;45.658;9.272;2024-01-30T20:34:16;7.60;99.90
41168;DHT22;26906;45.658;9.272;2024-01-30T20:36:42;7.50;99.90
41168;DHT22;26906;45.658;9.272;2024-01-30T20:39:12;7.60;99.90
41168;DHT22;26906;45.658;9.272;2024-01-30T20:41:38;7.60;99.90
41168;DHT22;26906;45.658;9.272;2024-01-30T20:44:05;7.60;99.90
41168;DHT22;26906;45.658;9.272;2024-01-30T20:46:33;7.50;99.90
41168;DHT22;26906;45.658;9.272;2024-01-30T20:48:59;7.40;99.90
41168;DHT22;26906;45.658;9.272;2024-01-30T20:51:24;7.40;99.90
41168;DHT22;26906;45.658;9.272;2024-01-30T20:53:50;7.60;99.90
41168;DHT22;26906;45.658;9.272;2024-01-30T20:56:16;7.50;99.90
41168;DHT22;26906;45.658;9.272;2024-01-30T20:58:41;7.40;99.90
41168;DHT22;26906;45.658;9.272;2024-01-30T21:01:07;7.30;99.90
41168;DHT22;26906;45.658;9.272;2024-01-30T21:03:33;7.50;99.90
41168;DHT22;26906;45.658;9.272;2024-01-30T21:05:59;7.50;99.90
41168;DHT22;26906;45.658;9.272;2024-01-30T21:08:25;7.40;99.90
41168;DHT22;26906;45.658;9.272;2024-01-30T21:10:52;7.40;99.90
41168;DHT22;26906;45.658;9.272;2024-01-30T21:13:18;7.40;99.90
41168;DHT22;26906;45.658;9.272;2024-01-30T21:15:44;7.40;99.90
41168;DHT22;26906;45.658;9.272;2024-01-30T21:18:10;7.40;99.90
41168;DHT22;26906;45.658;9.272;2024-01-30T21:20:37;7.40;99.90
41168;DHT22;26906;45.658;9.272;2024-01-30T21:23:03;7.40;99.90
41168;DHT22;26906;45.658;9.272;2024-01-30T21:25:28;7.50;99.90
41168;DHT22;26906;45.658;9.272;2024-01-30T21:27:54;7.60;99.90
41168;DHT22;26906;45.658;9.272;2024-01-30T21:30:20;7.40;99.90
41168;DHT22;26906;45.658;9.272;2024-01-30T21:32:46;7.20;99.90
41168;DHT22;26906;45.658;9.272;2024-01-30T21:35:12;7.20;99.90
41168;DHT22;26906;45.658;9.272;2024-01-30T21:37:38;7.20;99.90
